createdAt,value
2018-11-07T00:01:52.603Z,47.10
2018-11-07T00:04:20.680Z,47.10
2018-11-07T00:06:48.283Z,47.20
2018-11-07T00:09:15.867Z,47.30
2018-11-07T00:11:43.464Z,47.20
2018-11-07T00:14:11.078Z,47.30
2018-11-07T00:16:38.851Z,47.30
2018-11-07T00:19:06.686Z,47.40
2018-11-07T00:21:34.283Z,48.00
2018-11-07T00:24:01.977Z,47.40
2018-11-07T00:26:29.612Z,47.40
2018-11-07T00:28:57.256Z,47.40
2018-11-07T00:31:24.829Z,47.50
2018-11-07T00:33:52.419Z,47.50
2018-11-07T00:36:19.999Z,47.50
2018-11-07T00:38:47.606Z,47.50
2018-11-07T00:41:15.199Z,47.50
2018-11-07T00:43:42.790Z,47.60
2018-11-07T00:46:10.375Z,47.60
2018-11-07T00:48:38.145Z,47.70
2018-11-07T00:51:05.737Z,48.30
2018-11-07T00:53:33.414Z,47.70
2018-11-07T00:56:00.992Z,47.70
2018-11-07T00:58:28.837Z,47.70
2018-11-07T01:00:56.411Z,47.70
2018-11-07T01:03:23.988Z,47.80
2018-11-07T01:05:51.570Z,47.80
2018-11-07T01:08:19.248Z,47.40
2018-11-07T01:10:46.848Z,47.90
2018-11-07T01:13:14.443Z,47.90
2018-11-07T01:15:42.031Z,48.00
2018-11-07T01:18:09.621Z,48.00
2018-11-07T01:20:37.298Z,48.00
2018-11-07T01:23:04.948Z,48.00
2018-11-07T01:25:32.638Z,48.00
2018-11-07T01:28:00.418Z,48.00
2018-11-07T01:30:28.040Z,48.10
2018-11-07T01:32:55.661Z,48.10
2018-11-07T01:35:23.429Z,48.10
2018-11-07T01:37:51.069Z,48.10
2018-11-07T01:40:18.658Z,48.70
2018-11-07T01:42:46.242Z,48.10
2018-11-07T01:45:14.078Z,48.10
2018-11-07T01:47:41.675Z,48.10
2018-11-07T01:50:10.348Z,48.10
2018-11-07T01:52:37.949Z,48.10
2018-11-07T01:55:05.907Z,48.10
2018-11-07T01:57:33.585Z,48.10
2018-11-07T02:00:01.226Z,48.10
2018-11-07T02:02:28.808Z,48.20
2018-11-07T02:04:56.457Z,48.10
2018-11-07T02:07:24.058Z,48.10
2018-11-07T02:09:51.651Z,48.10
2018-11-07T02:12:19.289Z,48.70
2018-11-07T02:14:46.966Z,48.20
2018-11-07T02:17:14.586Z,48.20
2018-11-07T02:19:42.209Z,48.10
2018-11-07T02:22:09.879Z,48.20
2018-11-07T02:24:37.672Z,48.20
2018-11-07T02:27:05.446Z,48.20
2018-11-07T02:29:33.336Z,48.20
2018-11-07T02:32:00.951Z,48.10
2018-11-07T02:34:28.545Z,48.10
2018-11-07T02:36:56.159Z,48.10
2018-11-07T02:39:23.929Z,48.10
2018-11-07T02:41:51.574Z,48.20
2018-11-07T02:44:19.160Z,48.10
2018-11-07T02:46:46.861Z,48.10
2018-11-07T02:49:14.454Z,48.20
2018-11-07T02:51:42.034Z,48.70
2018-11-07T02:54:09.689Z,48.10
2018-11-07T02:56:37.396Z,48.20
2018-11-07T02:59:05.096Z,48.10
2018-11-07T03:01:32.690Z,48.10
2018-11-07T03:04:00.304Z,48.10
2018-11-07T03:06:27.965Z,48.10
2018-11-07T03:08:55.566Z,48.20
2018-11-07T03:11:23.186Z,48.10
2018-11-07T03:13:51.080Z,48.10
2018-11-07T03:16:18.728Z,48.10
2018-11-07T03:18:46.419Z,48.10
2018-11-07T03:21:14.050Z,48.10
2018-11-07T03:23:41.963Z,48.10
2018-11-07T03:26:09.604Z,48.10
2018-11-07T03:28:37.194Z,48.10
2018-11-07T03:31:05.097Z,48.10
2018-11-07T03:33:32.690Z,48.10
2018-11-07T03:36:00.274Z,48.10
2018-11-07T03:38:27.861Z,48.10
2018-11-07T03:40:55.446Z,48.10
2018-11-07T03:43:23.034Z,48.10
2018-11-07T03:45:56.213Z,48.10
2018-11-07T03:48:23.838Z,48.10
2018-11-07T03:50:51.500Z,48.10
2018-11-07T03:53:19.173Z,48.20
2018-11-07T03:55:46.691Z,48.20
2018-11-07T03:58:14.269Z,48.20
2018-11-07T04:00:41.901Z,48.40
2018-11-07T04:03:09.571Z,48.40
2018-11-07T04:05:37.360Z,48.40
2018-11-07T04:08:05.248Z,48.40
2018-11-07T04:10:32.908Z,48.40
2018-11-07T04:13:00.497Z,48.50
2018-11-07T04:15:28.087Z,48.40
2018-11-07T04:17:55.766Z,49.10
2018-11-07T04:20:23.344Z,48.50
2018-11-07T04:22:51.006Z,48.50
2018-11-07T04:25:18.600Z,48.50
2018-11-07T04:27:46.181Z,48.50
2018-11-07T04:30:13.863Z,48.50
2018-11-07T04:32:41.989Z,48.50
2018-11-07T04:35:10.623Z,48.50
2018-11-07T04:37:38.393Z,48.50
2018-11-07T04:40:07.107Z,48.50
2018-11-07T04:42:35.422Z,48.50
2018-11-07T04:45:03.789Z,48.50
2018-11-07T04:47:33.482Z,48.50
2018-11-07T04:50:01.712Z,48.60
2018-11-07T04:52:29.885Z,48.60
2018-11-07T04:54:58.207Z,48.60
2018-11-07T04:57:26.617Z,48.70
2018-11-07T04:59:54.698Z,48.70
2018-11-07T05:02:23.000Z,48.70
2018-11-07T05:04:51.447Z,48.70
2018-11-07T05:07:20.545Z,48.70
2018-11-07T05:09:48.743Z,48.70
2018-11-07T05:12:16.933Z,48.80
2018-11-07T05:14:45.846Z,48.80
2018-11-07T05:17:14.912Z,48.70
2018-11-07T05:19:43.022Z,48.70
2018-11-07T05:22:13.131Z,48.80
2018-11-07T05:24:43.707Z,48.90
2018-11-07T05:27:13.150Z,48.80
2018-11-07T05:29:41.604Z,48.80
2018-11-07T05:32:09.744Z,48.70
2018-11-07T05:34:38.192Z,48.70
2018-11-07T05:37:06.863Z,48.60
2018-11-07T05:39:36.920Z,48.60
2018-11-07T05:42:05.025Z,48.40
2018-11-07T05:44:33.286Z,48.60
2018-11-07T05:47:01.521Z,48.70
2018-11-07T05:49:29.362Z,48.60
2018-11-07T05:51:57.119Z,48.60
2018-11-07T05:54:24.692Z,49.20
2018-11-07T05:56:52.465Z,48.70
2018-11-07T05:59:20.059Z,48.70
2018-11-07T06:01:47.644Z,48.70
2018-11-07T06:04:15.457Z,47.40
2018-11-07T06:06:43.106Z,47.40
2018-11-07T06:09:10.824Z,48.60
2018-11-07T06:11:38.494Z,48.00
2018-11-07T06:14:06.603Z,48.00
2018-11-07T06:16:34.365Z,47.90
2018-11-07T06:19:02.170Z,48.10
2018-11-07T06:21:29.779Z,47.40
2018-11-07T06:23:57.367Z,47.40
2018-11-07T06:26:24.977Z,47.20
2018-11-07T06:28:52.560Z,47.20
2018-11-07T06:31:20.147Z,47.00
2018-11-07T06:33:47.849Z,47.00
2018-11-07T06:36:15.417Z,47.00
2018-11-07T06:38:43.018Z,46.80
2018-11-07T06:41:10.866Z,46.80
2018-11-07T06:43:38.557Z,46.90
2018-11-07T06:46:06.151Z,46.90
2018-11-07T06:48:33.756Z,46.80
2018-11-07T06:51:01.345Z,46.90
2018-11-07T06:53:28.924Z,46.90
2018-11-07T06:55:56.537Z,46.90
2018-11-07T06:58:24.124Z,47.00
2018-11-07T07:00:51.711Z,46.90
2018-11-07T07:03:19.290Z,47.00
2018-11-07T07:05:46.864Z,47.00
2018-11-07T07:08:14.460Z,47.20
2018-11-07T07:10:42.044Z,47.30
2018-11-07T07:13:09.638Z,47.20
2018-11-07T07:15:37.252Z,47.20
2018-11-07T07:18:04.957Z,47.10
2018-11-07T07:20:32.531Z,47.20
2018-11-07T07:23:00.109Z,47.00
2018-11-07T07:25:27.773Z,47.10
2018-11-07T07:27:55.308Z,47.00
2018-11-07T07:30:22.908Z,46.90
2018-11-07T07:32:51.005Z,46.80
2018-11-07T07:35:18.644Z,46.70
2018-11-07T07:37:46.538Z,46.70
2018-11-07T07:40:14.699Z,46.70
2018-11-07T07:42:43.040Z,46.60
2018-11-07T07:45:13.086Z,46.60
2018-11-07T07:47:41.152Z,46.60
2018-11-07T07:50:10.080Z,46.50
2018-11-07T07:52:37.842Z,46.60
2018-11-07T07:55:05.872Z,46.50
2018-11-07T07:57:33.573Z,46.50
2018-11-07T08:00:01.150Z,46.50
2018-11-07T08:02:28.740Z,46.60
2018-11-07T08:04:56.315Z,46.60
2018-11-07T08:07:23.953Z,46.60
2018-11-07T08:09:51.530Z,46.80
2018-11-07T08:12:19.104Z,47.00
2018-11-07T08:14:46.776Z,47.00
2018-11-07T08:17:14.379Z,46.90
2018-11-07T08:19:41.946Z,46.90
2018-11-07T08:22:09.524Z,46.90
2018-11-07T08:24:37.102Z,46.90
2018-11-07T08:27:04.836Z,46.90
2018-11-07T08:29:32.612Z,46.80
2018-11-07T08:32:00.286Z,46.80
2018-11-07T08:34:27.875Z,46.80
2018-11-07T08:36:55.469Z,46.70
2018-11-07T08:39:23.075Z,46.60
2018-11-07T08:41:50.686Z,46.50
2018-11-07T08:44:18.281Z,46.50
2018-11-07T08:46:45.881Z,46.50
2018-11-07T08:49:13.502Z,46.40
2018-11-07T08:51:41.081Z,46.30
2018-11-07T08:54:08.656Z,46.40
2018-11-07T08:56:36.238Z,46.30
2018-11-07T08:59:03.821Z,46.30
2018-11-07T09:01:31.514Z,46.30
2018-11-07T09:03:59.276Z,46.40
2018-11-07T09:06:26.882Z,46.40
2018-11-07T09:08:54.589Z,46.50
2018-11-07T09:11:22.267Z,46.80
2018-11-07T09:13:50.034Z,46.80
2018-11-07T09:16:17.640Z,46.90
2018-11-07T09:18:45.245Z,47.00
2018-11-07T09:21:13.171Z,47.10
2018-11-07T09:23:40.844Z,47.10
2018-11-07T09:26:08.657Z,47.10
2018-11-07T09:28:36.251Z,47.10
2018-11-07T09:31:03.872Z,47.10
2018-11-07T09:33:31.468Z,47.00
2018-11-07T09:35:59.051Z,47.00
2018-11-07T09:38:26.641Z,47.00
2018-11-07T09:40:54.206Z,47.00
2018-11-07T09:43:21.802Z,46.80
2018-11-07T09:45:49.509Z,46.80
2018-11-07T09:48:17.128Z,46.70
2018-11-07T09:50:44.725Z,46.60
2018-11-07T09:53:12.361Z,46.70
2018-11-07T09:55:40.074Z,46.60
2018-11-07T09:58:07.712Z,46.60
2018-11-07T10:00:35.357Z,46.50
2018-11-07T10:03:02.935Z,46.50
2018-11-07T10:05:30.541Z,46.50
2018-11-07T10:07:58.128Z,46.50
2018-11-07T10:10:25.708Z,46.50
2018-11-07T10:12:53.357Z,46.50
2018-11-07T10:15:21.251Z,46.50
2018-11-07T10:17:49.008Z,46.70
2018-11-07T10:20:21.759Z,46.80
2018-11-07T10:22:49.715Z,46.90
2018-11-07T10:25:17.493Z,46.80
2018-11-07T10:27:45.477Z,46.80
2018-11-07T10:30:14.481Z,46.70
2018-11-07T10:32:42.885Z,46.60
2018-11-07T10:35:10.648Z,46.60
2018-11-07T10:37:38.310Z,46.60
2018-11-07T10:40:07.481Z,46.60
2018-11-07T10:42:35.203Z,46.60
2018-11-07T10:45:02.851Z,46.50
2018-11-07T10:47:30.444Z,46.50
2018-11-07T10:49:58.023Z,46.40
2018-11-07T10:52:25.623Z,47.00
2018-11-07T10:54:53.202Z,46.40
2018-11-07T10:57:20.799Z,47.00
2018-11-07T10:59:48.405Z,46.30
2018-11-07T11:02:21.338Z,46.30
2018-11-07T11:04:48.916Z,46.30
2018-11-07T11:07:16.503Z,46.20
2018-11-07T11:09:44.143Z,46.30
2018-11-07T11:12:11.723Z,46.20
2018-11-07T11:14:39.320Z,46.20
2018-11-07T11:17:06.950Z,46.30
2018-11-07T11:19:34.560Z,46.50
2018-11-07T11:22:02.242Z,47.10
2018-11-07T11:24:29.931Z,46.50
2018-11-07T11:26:57.557Z,46.50
2018-11-07T11:29:25.141Z,46.50
2018-11-07T11:31:52.728Z,46.50
2018-11-07T11:34:20.573Z,46.50
2018-11-07T11:36:48.334Z,46.50
2018-11-07T11:39:15.927Z,46.50
2018-11-07T11:41:43.781Z,46.40
2018-11-07T11:44:11.407Z,46.40
2018-11-07T11:46:39.008Z,46.40
2018-11-07T11:49:06.824Z,46.40
2018-11-07T11:51:34.695Z,46.30
2018-11-07T11:54:02.299Z,46.30
2018-11-07T11:56:29.998Z,46.30
2018-11-07T11:58:57.928Z,46.20
2018-11-07T12:01:25.478Z,46.00
2018-11-07T12:03:53.123Z,46.00
2018-11-07T12:06:20.706Z,46.10
2018-11-07T12:08:48.472Z,46.00
2018-11-07T12:11:16.186Z,46.10
2018-11-07T12:13:43.843Z,46.10
2018-11-07T12:16:11.530Z,46.10
2018-11-07T12:18:39.124Z,46.20
2018-11-07T12:21:06.979Z,46.90
2018-11-07T12:23:34.516Z,46.30
2018-11-07T12:26:02.116Z,46.40
2018-11-07T12:28:29.988Z,46.30
2018-11-07T12:30:57.603Z,46.30
2018-11-07T12:33:25.232Z,46.30
2018-11-07T12:35:52.832Z,46.30
2018-11-07T12:38:20.518Z,46.30
2018-11-07T12:40:48.244Z,46.30
2018-11-07T12:43:15.942Z,46.20
2018-11-07T12:45:43.647Z,46.20
2018-11-07T12:48:11.241Z,46.20
2018-11-07T12:50:39.188Z,46.20
2018-11-07T12:53:06.847Z,46.20
2018-11-07T12:55:34.524Z,45.90
2018-11-07T12:58:02.363Z,46.20
2018-11-07T13:00:29.834Z,46.20
2018-11-07T13:02:57.465Z,46.20
2018-11-07T13:05:25.979Z,46.10
2018-11-07T13:07:54.451Z,46.10
2018-11-07T13:10:22.676Z,46.10
2018-11-07T13:12:50.843Z,46.30
2018-11-07T13:15:18.535Z,46.00
2018-11-07T13:17:47.246Z,46.20
2018-11-07T13:20:17.273Z,46.20
2018-11-07T13:22:46.060Z,46.20
2018-11-07T13:25:14.540Z,46.30
2018-11-07T13:27:42.176Z,46.50
2018-11-07T13:30:11.630Z,46.60
2018-11-07T13:32:39.496Z,46.70
2018-11-07T13:35:07.821Z,46.80
2018-11-07T13:37:35.623Z,46.80
2018-11-07T13:40:03.356Z,46.60
2018-11-07T13:42:30.973Z,46.70
2018-11-07T13:44:58.693Z,46.60
2018-11-07T13:47:26.352Z,46.60
2018-11-07T13:49:53.993Z,46.60
2018-11-07T13:52:21.615Z,46.60
2018-11-07T13:54:49.237Z,46.50
2018-11-07T13:57:16.821Z,46.50
2018-11-07T13:59:44.523Z,46.40
2018-11-07T14:02:12.220Z,46.40
2018-11-07T14:04:39.813Z,46.40
2018-11-07T14:07:07.476Z,46.30
2018-11-07T14:09:35.225Z,46.30
2018-11-07T14:12:02.903Z,46.30
2018-11-07T14:14:30.693Z,46.20
2018-11-07T14:16:58.371Z,46.20
2018-11-07T14:19:25.955Z,46.80
2018-11-07T14:21:53.574Z,46.30
2018-11-07T14:24:21.170Z,46.20
2018-11-07T14:26:48.840Z,46.10
2018-11-07T14:29:16.431Z,46.20
2018-11-07T14:31:44.109Z,46.20
2018-11-07T14:34:12.056Z,46.30
2018-11-07T14:36:39.763Z,46.40
2018-11-07T14:39:07.807Z,46.40
2018-11-07T14:41:35.376Z,46.40
2018-11-07T14:44:03.009Z,46.40
2018-11-07T14:46:30.737Z,46.50
2018-11-07T14:48:58.485Z,46.40
2018-11-07T14:51:26.237Z,46.40
2018-11-07T14:53:53.848Z,46.30
2018-11-07T14:56:21.542Z,46.40
2018-11-07T14:58:49.164Z,46.40
2018-11-07T15:01:16.920Z,46.30
2018-11-07T15:03:44.500Z,46.70
2018-11-07T15:06:12.227Z,46.30
2018-11-07T15:08:39.833Z,46.30
2018-11-07T15:11:07.635Z,45.80
2018-11-07T15:13:35.359Z,46.20
2018-11-07T15:16:03.379Z,46.20
2018-11-07T15:18:31.110Z,46.20
2018-11-07T15:20:58.680Z,46.20
2018-11-07T15:23:26.417Z,46.40
2018-11-07T15:25:54.326Z,46.30
2018-11-07T15:28:22.494Z,46.30
2018-11-07T15:30:50.477Z,46.30
2018-11-07T15:33:18.123Z,46.60
2018-11-07T15:35:45.801Z,46.50
2018-11-07T15:38:13.782Z,46.70
2018-11-07T15:40:41.364Z,46.80
2018-11-07T15:43:09.035Z,46.80
2018-11-07T15:45:36.823Z,46.80
2018-11-07T15:48:04.402Z,46.80
2018-11-07T15:50:37.426Z,46.80
2018-11-07T15:53:05.137Z,46.90
2018-11-07T15:55:32.791Z,46.90
2018-11-07T15:58:01.549Z,46.90
2018-11-07T16:00:29.342Z,47.00
2018-11-07T16:02:56.951Z,47.10
2018-11-07T16:05:25.065Z,47.10
2018-11-07T16:07:52.739Z,47.00
2018-11-07T16:10:20.496Z,47.10
2018-11-07T16:12:48.105Z,47.20
2018-11-07T16:15:16.883Z,47.10
2018-11-07T16:17:44.905Z,47.10
2018-11-07T16:20:13.838Z,47.70
2018-11-07T16:22:42.568Z,47.10
2018-11-07T16:25:11.688Z,47.20
2018-11-07T16:27:39.890Z,47.20
2018-11-07T16:30:08.566Z,47.80
2018-11-07T16:32:36.188Z,47.20
2018-11-07T16:35:04.238Z,47.20
2018-11-07T16:37:31.971Z,47.20
2018-11-07T16:39:59.583Z,47.40
2018-11-07T16:42:27.272Z,47.50
2018-11-07T16:44:54.926Z,47.90
2018-11-07T16:47:22.740Z,48.10
2018-11-07T16:49:50.467Z,48.00
2018-11-07T16:52:18.073Z,48.60
2018-11-07T16:54:45.644Z,48.00
2018-11-07T16:57:13.398Z,48.00
2018-11-07T16:59:41.256Z,48.10
2018-11-07T17:02:09.180Z,48.10
2018-11-07T17:04:36.804Z,48.10
2018-11-07T17:07:04.408Z,48.10
2018-11-07T17:09:32.265Z,48.10
2018-11-07T17:11:59.858Z,47.90
2018-11-07T17:14:27.605Z,47.90
2018-11-07T17:16:55.412Z,47.80
2018-11-07T17:19:23.155Z,47.80
2018-11-07T17:21:50.801Z,47.80
2018-11-07T17:24:19.695Z,47.80
2018-11-07T17:26:47.323Z,47.90
2018-11-07T17:29:15.109Z,47.90
2018-11-07T17:31:42.927Z,47.80
2018-11-07T17:34:10.853Z,47.70
2018-11-07T17:36:38.809Z,47.70
2018-11-07T17:39:07.257Z,47.80
2018-11-07T17:41:34.923Z,47.80
2018-11-07T17:44:02.578Z,47.80
2018-11-07T17:46:30.460Z,47.90
2018-11-07T17:48:58.213Z,47.80
2018-11-07T17:51:25.804Z,48.10
2018-11-07T17:53:53.480Z,48.10
2018-11-07T17:56:21.194Z,48.50
2018-11-07T17:58:48.794Z,48.50
2018-11-07T18:01:16.392Z,48.70
2018-11-07T18:03:44.025Z,49.30
2018-11-07T18:06:11.782Z,48.80
2018-11-07T18:08:39.335Z,48.80
2018-11-07T18:11:06.976Z,48.70
2018-11-07T18:13:34.563Z,48.70
2018-11-07T18:16:02.247Z,48.50
2018-11-07T18:18:30.587Z,48.50
2018-11-07T18:20:58.331Z,48.80
2018-11-07T18:23:26.084Z,48.70
2018-11-07T18:25:53.879Z,48.50
2018-11-07T18:28:21.543Z,48.40
2018-11-07T18:30:49.293Z,48.30
2018-11-07T18:33:17.443Z,48.20
2018-11-07T18:35:45.230Z,48.10
2018-11-07T18:38:13.009Z,48.60
2018-11-07T18:40:40.754Z,48.00
2018-11-07T18:43:08.379Z,48.10
2018-11-07T18:45:36.106Z,48.10
2018-11-07T18:48:04.238Z,48.00
2018-11-07T18:50:32.430Z,48.00
2018-11-07T18:53:00.094Z,48.10
2018-11-07T18:55:27.678Z,48.00
2018-11-07T18:57:55.252Z,48.10
2018-11-07T19:00:22.978Z,48.10
2018-11-07T19:02:50.892Z,48.10
2018-11-07T19:05:19.686Z,48.10
2018-11-07T19:07:48.458Z,48.10
2018-11-07T19:10:17.274Z,48.00
2018-11-07T19:12:45.744Z,47.90
2018-11-07T19:15:14.510Z,48.20
2018-11-07T19:17:43.228Z,48.20
2018-11-07T19:20:12.213Z,48.30
2018-11-07T19:22:39.803Z,48.20
2018-11-07T19:25:08.616Z,48.20
2018-11-07T19:27:37.367Z,48.10
2018-11-07T19:30:06.259Z,48.00
2018-11-07T19:32:33.840Z,48.30
2018-11-07T19:35:01.446Z,48.10
2018-11-07T19:43:27.638Z,48.00
2018-11-07T19:47:51.285Z,48.00
2018-11-07T19:50:20.287Z,48.10
2018-11-07T19:52:48.857Z,48.10
2018-11-07T19:55:19.302Z,48.00
2018-11-07T19:57:49.042Z,48.00
2018-11-07T20:00:17.813Z,48.10
2018-11-07T20:02:46.319Z,48.10
2018-11-07T20:05:14.307Z,48.10
2018-11-07T20:07:42.230Z,48.10
2018-11-07T20:10:11.519Z,48.00
2018-11-07T20:12:39.364Z,48.10
2018-11-07T20:15:07.331Z,48.10
2018-11-07T20:17:35.035Z,48.10
2018-11-07T20:20:02.800Z,48.00
2018-11-07T20:22:30.470Z,48.00
2018-11-07T20:24:58.135Z,48.10
2018-11-07T20:27:26.704Z,47.90
2018-11-07T20:29:54.471Z,48.40
2018-11-07T20:32:22.074Z,48.20
2018-11-07T20:34:49.639Z,48.30
2018-11-07T20:37:17.225Z,48.30
2018-11-07T20:39:44.867Z,48.10
2018-11-07T20:42:12.440Z,48.10
2018-11-07T20:44:40.038Z,48.10
2018-11-07T20:47:07.620Z,48.00
2018-11-07T20:49:35.313Z,48.10
2018-11-07T20:52:02.894Z,48.00
2018-11-07T20:54:30.512Z,48.00
2018-11-07T20:56:58.089Z,48.00
2018-11-07T20:59:25.725Z,48.00
2018-11-07T21:01:53.360Z,48.10
2018-11-07T21:04:20.944Z,48.10
2018-11-07T21:06:48.517Z,48.10
2018-11-07T21:09:16.120Z,48.40
2018-11-07T21:11:43.692Z,47.90
2018-11-07T21:14:11.419Z,47.80
2018-11-07T21:16:39.033Z,47.80
2018-11-07T21:19:06.644Z,47.80
2018-11-07T21:21:34.406Z,47.80
2018-11-07T21:24:02.158Z,47.80
2018-11-07T21:26:29.863Z,47.90
2018-11-07T21:28:57.488Z,47.90
2018-11-07T21:31:25.082Z,48.00
2018-11-07T21:33:52.665Z,48.00
2018-11-07T21:36:20.293Z,48.10
2018-11-07T21:38:47.889Z,48.60
2018-11-07T21:41:15.507Z,48.20
2018-11-07T21:43:43.168Z,48.10
2018-11-07T21:46:11.367Z,48.00
2018-11-07T21:48:39.372Z,48.00
2018-11-07T21:51:06.981Z,48.00
2018-11-07T21:53:34.647Z,48.00
2018-11-07T21:58:35.646Z,47.80
2018-11-07T22:01:03.363Z,47.70
2018-11-07T22:03:30.929Z,47.60
2018-11-07T22:05:58.519Z,47.50
2018-11-07T22:08:26.183Z,47.40
2018-11-07T22:10:53.760Z,47.40
2018-11-07T22:13:21.372Z,47.30
2018-11-07T22:15:49.040Z,47.20
2018-11-07T22:18:16.615Z,47.20
2018-11-07T22:20:44.190Z,47.20
2018-11-07T22:23:11.748Z,47.20
2018-11-07T22:25:39.342Z,47.10
2018-11-07T22:28:07.396Z,47.10
2018-11-07T22:30:34.989Z,47.10
2018-11-07T22:33:02.554Z,47.00
2018-11-07T22:35:30.770Z,47.10
2018-11-07T22:37:58.395Z,47.00
2018-11-07T22:40:26.019Z,47.00
2018-11-07T22:42:53.648Z,47.10
2018-11-07T22:45:21.242Z,47.20
2018-11-07T22:47:49.099Z,47.30
2018-11-07T22:50:16.883Z,47.40
2018-11-07T22:52:45.203Z,47.50
2018-11-07T22:55:12.792Z,47.70
2018-11-07T22:57:40.403Z,47.80
2018-11-07T23:00:14.179Z,47.80
2018-11-07T23:02:41.820Z,48.30
2018-11-07T23:05:09.410Z,47.60
2018-11-07T23:07:36.993Z,47.60
2018-11-07T23:10:04.953Z,47.60
2018-11-07T23:12:32.664Z,47.40
2018-11-07T23:15:00.269Z,47.40
2018-11-07T23:17:27.993Z,47.30
2018-11-07T23:19:55.591Z,47.20
2018-11-07T23:22:23.223Z,47.10
2018-11-07T23:24:50.995Z,47.10
2018-11-07T23:27:18.667Z,47.60
2018-11-07T23:29:46.364Z,46.90
2018-11-07T23:32:13.961Z,46.90
2018-11-07T23:34:41.583Z,46.90
2018-11-07T23:37:09.176Z,46.90
2018-11-07T23:39:36.771Z,46.80
2018-11-07T23:42:04.364Z,46.90
2018-11-07T23:44:31.949Z,46.90
2018-11-07T23:46:59.538Z,46.80
2018-11-07T23:49:27.228Z,46.80
2018-11-07T23:51:54.837Z,46.80
2018-11-07T23:54:22.416Z,46.80
2018-11-07T23:56:50.709Z,46.90
2018-11-07T23:59:18.686Z,47.00
